createdAt,value
2018-01-28T00:00:51.206Z,6.40
2018-01-28T00:01:52.050Z,7.30
2018-01-28T00:02:51.798Z,9.70
2018-01-28T00:03:51.734Z,8.00
2018-01-28T00:04:51.262Z,8.60
2018-01-28T00:05:53.213Z,8.60
2018-01-28T00:06:53.207Z,7.90
2018-01-28T00:07:51.737Z,8.50
2018-01-28T00:08:52.147Z,8.60
2018-01-28T00:09:51.763Z,9.30
2018-01-28T00:10:52.285Z,6.10
2018-01-28T00:11:52.278Z,8.30
2018-01-28T00:12:52.034Z,8.20
2018-01-28T00:13:52.450Z,6.80
2018-01-28T00:14:52.036Z,7.70
2018-01-28T00:15:51.841Z,9.10
2018-01-28T00:16:51.656Z,10.50
2018-01-28T00:17:52.974Z,8.00
2018-01-28T00:18:52.426Z,7.30
2018-01-28T00:19:51.953Z,6.40
2018-01-28T00:20:51.869Z,7.90
2018-01-28T00:21:51.556Z,8.10
2018-01-28T00:22:52.384Z,6.10
2018-01-28T00:23:52.038Z,6.90
2018-01-28T00:24:51.858Z,6.30
2018-01-28T00:25:51.318Z,9.10
2018-01-28T00:26:51.834Z,8.70
2018-01-28T00:27:52.262Z,5.80
2018-01-28T00:28:52.213Z,6.90
2018-01-28T00:30:13.831Z,6.00
2018-01-28T00:31:14.338Z,7.70
2018-01-28T00:32:14.010Z,5.50
2018-01-28T00:33:14.833Z,5.30
2018-01-28T00:34:14.446Z,8.50
2018-01-28T00:35:14.037Z,6.00
2018-01-28T00:36:36.974Z,7.60
2018-01-28T00:38:00.349Z,9.70
2018-01-28T00:39:00.780Z,7.40
2018-01-28T00:40:00.720Z,6.00
2018-01-28T00:41:00.258Z,6.40
2018-01-28T00:42:00.855Z,7.10
2018-01-28T00:43:00.503Z,6.90
2018-01-28T00:44:00.368Z,7.30
2018-01-28T00:45:01.097Z,10.90
2018-01-28T00:46:00.917Z,7.00
2018-01-28T00:47:01.016Z,5.00
2018-01-28T00:48:00.782Z,5.50
2018-01-28T00:49:00.883Z,4.50
2018-01-28T00:50:00.478Z,4.60
2018-01-28T00:51:01.027Z,7.40
2018-01-28T00:52:00.512Z,9.10
2018-01-28T00:53:00.226Z,7.40
2018-01-28T00:54:00.996Z,6.00
2018-01-28T00:55:00.595Z,7.10
2018-01-28T00:56:01.166Z,9.20
2018-01-28T00:57:00.722Z,7.90
2018-01-28T00:58:22.713Z,10.40
2018-01-28T00:59:23.381Z,9.30
2018-01-28T01:00:22.912Z,8.20
2018-01-28T01:01:23.708Z,7.70
2018-01-28T01:02:23.285Z,4.30
2018-01-28T01:03:22.826Z,6.50
2018-01-28T01:04:23.281Z,6.00
2018-01-28T01:05:23.430Z,5.70
2018-01-28T01:06:23.099Z,5.90
2018-01-28T01:07:22.631Z,9.80
2018-01-28T01:08:46.534Z,7.20
2018-01-28T01:09:47.158Z,10.60
2018-01-28T01:11:32.056Z,8.30
2018-01-28T01:12:31.507Z,7.40
2018-01-28T01:13:31.967Z,8.40
2018-01-28T01:14:54.156Z,6.30
2018-01-28T01:15:55.176Z,8.80
2018-01-28T01:16:55.132Z,9.50
2018-01-28T01:17:54.658Z,9.60
2018-01-28T01:18:54.614Z,5.60
2018-01-28T01:19:54.433Z,7.20
2018-01-28T01:20:54.360Z,5.30
2018-01-28T01:21:54.048Z,6.10
2018-01-28T01:23:17.923Z,9.60
2018-01-28T01:24:17.755Z,7.00
2018-01-28T01:25:18.443Z,9.10
2018-01-28T01:26:18.432Z,8.00
2018-01-28T01:27:18.905Z,6.30
2018-01-28T01:28:18.385Z,4.40
2018-01-28T01:29:18.408Z,7.30
2018-01-28T01:30:18.126Z,11.20
2018-01-28T01:31:17.771Z,10.20
2018-01-28T01:32:18.382Z,9.50
2018-01-28T01:33:17.983Z,10.00
2018-01-28T01:34:17.749Z,7.40
2018-01-28T01:35:18.209Z,12.50
2018-01-28T01:36:17.780Z,9.30
2018-01-28T01:37:17.477Z,9.00
2018-01-28T01:38:18.531Z,6.50
2018-01-28T01:39:18.260Z,10.80
2018-01-28T01:40:17.999Z,9.10
2018-01-28T01:41:17.567Z,5.50
2018-01-28T01:42:18.290Z,6.80
2018-01-28T01:43:18.038Z,7.00
2018-01-28T01:44:39.674Z,10.40
2018-01-28T01:45:40.256Z,9.90
2018-01-28T01:46:39.734Z,10.80
2018-01-28T01:47:40.314Z,12.00
2018-01-28T01:48:39.990Z,13.20
2018-01-28T01:49:39.729Z,14.00
2018-01-28T01:50:40.429Z,12.30
2018-01-28T01:51:40.043Z,10.40
2018-01-28T01:52:39.626Z,10.00
2018-01-28T01:53:40.304Z,10.40
2018-01-28T01:54:39.801Z,10.10
2018-01-28T01:55:40.140Z,11.50
2018-01-28T01:57:02.169Z,9.20
2018-01-28T01:58:02.597Z,8.10
2018-01-28T01:59:02.410Z,7.30
2018-01-28T02:00:02.635Z,8.30
2018-01-28T02:01:02.236Z,12.40
2018-01-28T02:02:24.830Z,11.80
2018-01-28T02:03:25.055Z,9.40
2018-01-28T02:04:25.427Z,7.90
2018-01-28T02:05:25.217Z,10.70
2018-01-28T02:06:25.736Z,7.60
2018-01-28T02:07:25.575Z,9.20
2018-01-28T02:08:25.567Z,8.50
2018-01-28T02:09:25.120Z,10.50
2018-01-28T02:10:25.529Z,11.40
2018-01-28T02:11:24.842Z,11.50
2018-01-28T02:12:26.192Z,9.40
2018-01-28T02:13:48.230Z,8.70
2018-01-28T02:14:48.955Z,12.10
2018-01-28T02:15:48.545Z,11.10
2018-01-28T02:16:49.293Z,10.40
2018-01-28T02:17:49.263Z,10.60
2018-01-28T02:18:48.607Z,9.60
2018-01-28T02:20:32.803Z,8.20
2018-01-28T02:21:33.173Z,8.60
2018-01-28T02:22:33.946Z,8.80
2018-01-28T02:23:33.749Z,10.60
2018-01-28T02:24:33.319Z,6.30
2018-01-28T02:25:33.662Z,10.30
2018-01-28T02:26:33.500Z,9.60
2018-01-28T02:27:33.724Z,5.10
2018-01-28T02:28:33.659Z,7.70
2018-01-28T02:29:34.043Z,5.90
2018-01-28T02:30:33.253Z,7.60
2018-01-28T02:31:33.647Z,7.60
2018-01-28T02:32:33.564Z,7.10
2018-01-28T02:33:55.510Z,7.60
2018-01-28T02:34:56.260Z,7.10
2018-01-28T02:35:56.126Z,6.60
2018-01-28T02:36:55.566Z,6.00
2018-01-28T02:37:55.874Z,5.20
2018-01-28T02:38:55.624Z,6.20
2018-01-28T02:39:55.282Z,10.60
2018-01-28T02:40:55.748Z,8.90
2018-01-28T02:41:55.741Z,6.80
2018-01-28T02:42:55.078Z,10.00
2018-01-28T02:43:55.591Z,6.60
2018-01-28T02:44:56.380Z,6.50
2018-01-28T02:45:56.198Z,9.10
2018-01-28T02:46:55.597Z,10.20
2018-01-28T02:47:55.656Z,9.00
2018-01-28T02:48:55.611Z,9.10
2018-01-28T02:49:56.291Z,8.50
2018-01-28T02:50:56.049Z,8.40
2018-01-28T02:51:55.415Z,10.00
2018-01-28T02:52:56.562Z,8.70
2018-01-28T02:53:55.934Z,10.30
2018-01-28T02:54:55.821Z,7.80
2018-01-28T02:56:18.546Z,8.40
2018-01-28T02:57:19.504Z,8.90
2018-01-28T02:58:19.119Z,11.20
2018-01-28T02:59:18.436Z,10.90
2018-01-28T03:00:19.258Z,11.00
2018-01-28T03:01:19.192Z,12.20
2018-01-28T03:02:19.499Z,12.30
2018-01-28T03:03:41.692Z,11.30
2018-01-28T03:04:41.982Z,12.20
2018-01-28T03:05:42.805Z,10.50
2018-01-28T03:06:42.661Z,13.30
2018-01-28T03:07:42.319Z,11.90
2018-01-28T03:08:41.975Z,9.00
2018-01-28T03:09:42.758Z,10.90
2018-01-28T03:10:42.303Z,10.30
2018-01-28T03:11:41.807Z,11.20
2018-01-28T03:12:42.176Z,11.40
2018-01-28T03:13:41.851Z,11.30
2018-01-28T03:14:42.329Z,13.00
2018-01-28T03:15:42.137Z,10.50
2018-01-28T03:16:42.725Z,10.40
2018-01-28T03:17:42.624Z,10.30
2018-01-28T03:18:42.765Z,11.50
2018-01-28T03:19:42.013Z,13.60
2018-01-28T03:20:42.364Z,11.30
2018-01-28T03:21:42.057Z,11.50
2018-01-28T03:22:42.616Z,12.30
2018-01-28T03:23:42.228Z,12.50
2018-01-28T03:24:41.786Z,14.50
2018-01-28T03:25:42.158Z,14.10
2018-01-28T03:26:42.131Z,11.90
2018-01-28T03:27:41.778Z,13.20
2018-01-28T03:28:42.283Z,10.80
2018-01-28T03:29:42.080Z,14.80
2018-01-28T03:30:42.518Z,8.40
2018-01-28T03:31:42.559Z,14.00
2018-01-28T03:32:42.048Z,11.50
2018-01-28T03:33:42.793Z,14.20
2018-01-28T03:34:42.350Z,14.40
2018-01-28T03:35:42.153Z,10.80
2018-01-28T03:36:42.197Z,12.50
2018-01-28T03:38:04.284Z,12.00
2018-01-28T03:39:04.975Z,10.80
2018-01-28T03:40:05.119Z,11.20
2018-01-28T03:41:04.587Z,12.10
2018-01-28T03:42:05.078Z,13.00
2018-01-28T03:43:04.672Z,9.30
2018-01-28T03:44:05.561Z,13.20
2018-01-28T03:45:05.082Z,11.60
2018-01-28T03:46:04.964Z,11.60
2018-01-28T03:47:04.620Z,11.80
2018-01-28T03:48:05.040Z,14.40
2018-01-28T03:49:04.731Z,14.20
2018-01-28T03:50:05.702Z,12.10
2018-01-28T03:51:05.399Z,13.30
2018-01-28T03:52:05.278Z,14.70
2018-01-28T03:53:05.126Z,12.10
2018-01-28T03:54:04.738Z,16.30
2018-01-28T03:55:05.200Z,16.90
2018-01-28T03:56:04.660Z,18.70
2018-01-28T03:57:05.553Z,17.60
2018-01-28T03:58:05.161Z,18.40
2018-01-28T03:59:04.626Z,15.80
2018-01-28T04:00:05.698Z,17.00
2018-01-28T04:01:28.404Z,16.30
2018-01-28T04:02:28.395Z,13.50
2018-01-28T04:03:28.131Z,17.70
2018-01-28T04:04:27.897Z,17.40
2018-01-28T04:05:28.403Z,18.80
2018-01-28T04:07:26.215Z,9.10
2018-01-28T04:08:26.543Z,12.60
2018-01-28T04:10:10.511Z,17.80
2018-01-28T04:11:33.500Z,19.20
2018-01-28T04:12:34.431Z,15.10
2018-01-28T04:13:33.796Z,18.60
2018-01-28T04:14:33.631Z,17.00
2018-01-28T04:15:33.998Z,19.40
2018-01-28T04:16:36.682Z,20.00
2018-01-28T04:17:34.131Z,11.50
2018-01-28T04:18:33.374Z,18.50
2018-01-28T04:19:33.911Z,14.40
2018-01-28T04:20:33.859Z,15.00
2018-01-28T04:21:33.673Z,15.20
2018-01-28T04:22:33.444Z,18.70
2018-01-28T04:23:33.841Z,17.60
2018-01-28T04:24:33.405Z,17.80
2018-01-28T04:25:34.175Z,20.30
2018-01-28T04:26:33.498Z,20.70
2018-01-28T04:27:33.936Z,23.90
2018-01-28T04:28:33.712Z,19.80
2018-01-28T04:29:33.620Z,18.60
2018-01-28T04:30:33.982Z,17.20
2018-01-28T04:31:33.251Z,18.40
2018-01-28T04:32:33.739Z,20.60
2018-01-28T04:33:34.522Z,14.10
2018-01-28T04:34:33.961Z,12.90
2018-01-28T04:35:33.484Z,17.50
2018-01-28T04:36:33.889Z,14.40
2018-01-28T04:37:33.406Z,15.50
2018-01-28T04:38:34.169Z,16.70
2018-01-28T04:39:34.113Z,20.20
2018-01-28T04:40:33.428Z,17.90
2018-01-28T04:41:34.124Z,21.80
2018-01-28T04:42:33.449Z,21.40
2018-01-28T04:43:34.094Z,20.10
2018-01-28T04:44:34.044Z,16.00
2018-01-28T04:45:34.023Z,15.50
2018-01-28T04:46:33.805Z,19.90
2018-01-28T04:47:33.808Z,17.80
2018-01-28T04:48:33.698Z,18.40
2018-01-28T04:49:34.448Z,20.40
2018-01-28T04:50:33.801Z,19.60
2018-01-28T04:51:32.994Z,22.30
2018-01-28T04:52:33.146Z,25.00
2018-01-28T04:53:33.559Z,21.30
2018-01-28T04:54:56.223Z,19.10
2018-01-28T04:55:56.537Z,20.30
2018-01-28T04:56:56.887Z,19.40
2018-01-28T04:57:56.709Z,18.10
2018-01-28T04:58:57.274Z,21.50
2018-01-28T04:59:56.687Z,22.90
2018-01-28T05:00:57.132Z,23.40
2018-01-28T05:01:56.788Z,16.90
2018-01-28T05:02:56.321Z,18.90
2018-01-28T05:03:56.680Z,18.30
2018-01-28T05:04:56.184Z,21.10
2018-01-28T05:05:56.454Z,24.50
2018-01-28T05:06:56.791Z,22.90
2018-01-28T05:07:57.000Z,18.70
2018-01-28T05:08:56.364Z,20.40
2018-01-28T05:09:57.185Z,23.10
2018-01-28T05:10:56.682Z,22.90
2018-01-28T05:11:56.580Z,21.20
2018-01-28T05:12:57.169Z,21.90
2018-01-28T05:13:56.575Z,20.20
2018-01-28T05:14:57.384Z,21.80
2018-01-28T05:15:57.204Z,25.80
2018-01-28T05:16:57.071Z,26.20
2018-01-28T05:17:56.742Z,16.30
2018-01-28T05:18:56.708Z,15.80
2018-01-28T05:19:56.742Z,21.20
2018-01-28T05:20:56.507Z,21.80
2018-01-28T05:21:56.668Z,21.40
2018-01-28T05:22:57.200Z,20.40
2018-01-28T05:23:56.724Z,19.40
2018-01-28T05:24:57.544Z,23.10
2018-01-28T05:25:57.026Z,25.80
2018-01-28T05:26:56.683Z,22.60
2018-01-28T05:27:56.593Z,23.00
2018-01-28T05:28:57.366Z,23.30
2018-01-28T05:29:57.090Z,22.50
2018-01-28T05:30:56.991Z,19.80
2018-01-28T05:31:56.807Z,23.90
2018-01-28T05:32:57.307Z,27.70
2018-01-28T05:33:57.055Z,26.80
2018-01-28T05:34:56.769Z,25.30
2018-01-28T05:35:56.114Z,27.10
2018-01-28T05:36:56.753Z,26.10
2018-01-28T05:37:57.158Z,23.50
2018-01-28T05:38:56.837Z,24.00
2018-01-28T05:39:56.381Z,23.50
2018-01-28T05:40:56.628Z,22.90
2018-01-28T05:41:57.354Z,19.10
2018-01-28T05:42:56.915Z,23.70
2018-01-28T05:43:56.250Z,28.00
2018-01-28T05:44:56.707Z,26.60
2018-01-28T05:45:56.181Z,26.80
2018-01-28T05:46:56.459Z,28.20
2018-01-28T05:47:56.870Z,25.00
2018-01-28T05:49:18.780Z,28.10
2018-01-28T05:50:20.275Z,27.70
2018-01-28T05:51:19.951Z,28.40
2018-01-28T05:52:19.769Z,28.50
2018-01-28T05:53:19.778Z,29.90
2018-01-28T05:54:41.575Z,29.60
2018-01-28T05:55:41.969Z,28.80
2018-01-28T05:56:42.874Z,28.80
2018-01-28T05:57:42.657Z,29.70
2018-01-28T05:58:42.410Z,28.80
2018-01-28T05:59:41.735Z,29.00
2018-01-28T06:00:42.308Z,23.80
2018-01-28T06:01:41.552Z,29.70
2018-01-28T06:02:42.084Z,28.70
2018-01-28T06:03:42.686Z,29.00
2018-01-28T06:04:42.191Z,27.80
2018-01-28T06:05:41.740Z,29.90
2018-01-28T06:06:42.196Z,30.30
2018-01-28T06:07:41.904Z,33.20
2018-01-28T06:08:42.045Z,31.90
2018-01-28T06:09:41.654Z,32.70
2018-01-28T06:10:41.807Z,32.50
2018-01-28T06:11:42.016Z,31.00
2018-01-28T06:12:42.390Z,28.60
2018-01-28T06:13:41.839Z,32.40
2018-01-28T06:14:42.468Z,28.60
2018-01-28T06:15:41.878Z,26.30
2018-01-28T06:16:42.071Z,25.00
2018-01-28T06:17:41.522Z,24.90
2018-01-28T06:18:42.154Z,24.70
2018-01-28T06:19:41.404Z,27.70
2018-01-28T06:20:41.820Z,24.20
2018-01-28T06:21:42.245Z,25.10
2018-01-28T06:22:41.887Z,23.50
2018-01-28T06:23:42.868Z,28.00
2018-01-28T06:24:42.618Z,27.60
2018-01-28T06:25:42.488Z,27.80
2018-01-28T06:26:42.072Z,28.10
2018-01-28T06:28:04.493Z,35.50
2018-01-28T06:29:05.251Z,34.20
2018-01-28T06:30:04.876Z,31.60
2018-01-28T06:31:05.055Z,30.00
2018-01-28T06:32:04.428Z,28.70
2018-01-28T06:33:05.329Z,32.90
2018-01-28T06:34:04.765Z,30.40
2018-01-28T06:35:05.147Z,30.80
2018-01-28T06:36:04.857Z,25.70
2018-01-28T06:37:05.152Z,30.60
2018-01-28T06:38:04.881Z,31.10
2018-01-28T06:39:05.483Z,28.60
2018-01-28T06:40:05.330Z,30.80
2018-01-28T06:41:04.675Z,30.70
2018-01-28T06:42:05.754Z,34.60
2018-01-28T06:43:05.050Z,37.60
2018-01-28T06:44:27.493Z,32.50
2018-01-28T06:45:27.759Z,35.40
2018-01-28T06:46:28.409Z,35.90
2018-01-28T06:47:27.806Z,35.30
2018-01-28T06:48:28.133Z,37.30
2018-01-28T06:49:28.281Z,36.70
2018-01-28T06:50:27.505Z,36.10
2018-01-28T06:51:28.333Z,37.30
2018-01-28T06:52:27.797Z,33.80
2018-01-28T06:53:28.342Z,36.70
2018-01-28T06:54:28.270Z,36.50
2018-01-28T06:55:27.437Z,30.30
2018-01-28T06:56:27.916Z,34.60
2018-01-28T06:57:28.862Z,36.20
2018-01-28T06:58:28.221Z,35.50
2018-01-28T06:59:27.649Z,31.60
2018-01-28T07:00:28.304Z,38.30
2018-01-28T07:01:28.284Z,37.40
2018-01-28T07:02:50.165Z,29.20
2018-01-28T07:03:50.612Z,35.80
2018-01-28T07:04:49.987Z,39.40
2018-01-28T07:05:50.562Z,35.00
2018-01-28T07:06:50.035Z,36.20
2018-01-28T07:07:50.599Z,36.30
2018-01-28T07:08:50.391Z,36.20
2018-01-28T07:09:49.743Z,35.90
2018-01-28T07:10:50.146Z,36.90
2018-01-28T07:11:50.918Z,35.60
2018-01-28T07:12:50.388Z,35.20
2018-01-28T07:13:49.908Z,35.30
2018-01-28T07:14:50.483Z,34.30
2018-01-28T07:15:50.096Z,36.50
2018-01-28T07:16:50.530Z,34.00
2018-01-28T07:18:12.201Z,38.70
2018-01-28T07:19:35.179Z,39.20
2018-01-28T07:20:36.032Z,35.90
2018-01-28T07:21:35.572Z,33.60
2018-01-28T07:22:35.988Z,36.10
2018-01-28T07:23:57.597Z,33.90
2018-01-28T07:24:57.998Z,31.50
2018-01-28T07:25:58.751Z,31.10
2018-01-28T07:27:21.222Z,31.30
2018-01-28T07:28:21.769Z,28.80
2018-01-28T07:29:21.320Z,34.40
2018-01-28T07:30:22.104Z,36.60
2018-01-28T07:31:21.932Z,28.80
2018-01-28T07:32:21.449Z,34.30
2018-01-28T07:33:21.963Z,33.00
2018-01-28T07:34:21.657Z,34.50
2018-01-28T07:35:21.222Z,33.90
2018-01-28T07:36:21.492Z,27.10
2018-01-28T07:37:21.324Z,35.80
2018-01-28T07:38:21.931Z,34.60
2018-01-28T07:39:21.792Z,34.50
2018-01-28T07:40:21.705Z,31.80
2018-01-28T07:41:21.196Z,33.70
2018-01-28T07:42:22.032Z,32.90
2018-01-28T07:43:21.412Z,33.90
2018-01-28T07:44:21.756Z,31.40
2018-01-28T07:45:21.691Z,30.70
2018-01-28T07:46:21.595Z,32.40
2018-01-28T07:47:20.890Z,27.30
2018-01-28T07:48:21.596Z,35.60
2018-01-28T07:49:21.292Z,31.10
2018-01-28T07:50:21.934Z,33.10
2018-01-28T07:51:21.684Z,34.80
2018-01-28T07:52:21.641Z,38.30
2018-01-28T07:53:21.297Z,33.40
2018-01-28T07:54:21.757Z,34.10
2018-01-28T07:55:21.044Z,32.30
2018-01-28T07:56:21.873Z,32.90
2018-01-28T07:57:21.250Z,27.40
2018-01-28T07:58:44.310Z,36.10
2018-01-28T07:59:44.747Z,31.20
2018-01-28T08:00:44.352Z,34.90
2018-01-28T08:02:07.302Z,26.80
2018-01-28T08:03:07.791Z,30.60
2018-01-28T08:04:08.882Z,34.10
2018-01-28T08:05:07.619Z,37.80
2018-01-28T08:06:08.047Z,37.10
2018-01-28T08:07:30.261Z,36.80
2018-01-28T08:08:30.838Z,38.70
2018-01-28T08:09:31.425Z,38.30
2018-01-28T08:10:31.131Z,37.10
2018-01-28T08:11:31.217Z,36.30
2018-01-28T08:12:31.155Z,31.60
2018-01-28T08:13:30.917Z,35.80
2018-01-28T08:14:30.801Z,34.90
2018-01-28T08:15:30.874Z,34.70
2018-01-28T08:16:31.419Z,36.10
2018-01-28T08:17:31.681Z,35.60
2018-01-28T08:18:30.761Z,35.70
2018-01-28T08:19:31.094Z,35.80
2018-01-28T08:20:31.048Z,33.60
2018-01-28T08:21:30.695Z,31.20
2018-01-28T08:22:31.150Z,30.90
2018-01-28T08:23:31.207Z,31.70
2018-01-28T08:24:30.613Z,32.60
2018-01-28T08:25:31.083Z,33.90
2018-01-28T08:26:31.043Z,34.80
2018-01-28T08:27:30.769Z,33.10
2018-01-28T08:28:30.559Z,31.50
2018-01-28T08:29:31.227Z,32.60
2018-01-28T08:30:31.135Z,29.40
2018-01-28T08:31:31.671Z,31.20
2018-01-28T08:32:54.154Z,30.30
2018-01-28T08:33:55.189Z,29.00
2018-01-28T08:34:55.154Z,29.30
2018-01-28T08:35:55.253Z,28.50
2018-01-28T08:36:54.898Z,27.70
2018-01-28T08:37:54.854Z,27.80
2018-01-28T08:38:54.634Z,26.40
2018-01-28T08:39:54.201Z,27.40
2018-01-28T08:40:55.278Z,26.50
2018-01-28T08:41:54.643Z,26.50
2018-01-28T08:42:54.400Z,25.60
2018-01-28T08:43:54.816Z,23.60
2018-01-28T08:44:54.288Z,26.60
2018-01-28T08:45:54.593Z,24.50
2018-01-28T08:46:54.963Z,25.70
2018-01-28T08:47:54.536Z,26.30
2018-01-28T08:48:54.275Z,25.90
2018-01-28T08:49:55.357Z,26.90
2018-01-28T08:51:15.203Z,26.70
2018-01-28T08:52:38.579Z,22.40
2018-01-28T08:53:39.155Z,27.90
2018-01-28T08:54:38.858Z,26.60
2018-01-28T08:55:38.716Z,24.10
2018-01-28T08:56:38.282Z,26.40
2018-01-28T08:57:39.237Z,24.40
2018-01-28T08:58:38.797Z,21.60
2018-01-28T08:59:39.005Z,22.90
2018-01-28T09:01:00.783Z,24.90
2018-01-28T09:02:01.303Z,23.60
2018-01-28T09:03:00.999Z,23.90
2018-01-28T09:04:01.685Z,25.00
2018-01-28T09:05:01.209Z,25.00
2018-01-28T09:06:01.861Z,25.80
2018-01-28T09:07:01.307Z,25.50
2018-01-28T09:08:01.026Z,25.90
2018-01-28T09:09:01.531Z,21.10
2018-01-28T09:10:00.951Z,25.20
2018-01-28T09:11:24.439Z,25.50
2018-01-28T09:12:25.052Z,25.30
2018-01-28T09:13:25.036Z,24.10
2018-01-28T09:14:24.753Z,22.20
2018-01-28T09:15:24.447Z,25.90
2018-01-28T09:16:25.181Z,23.20
2018-01-28T09:17:25.107Z,23.40
2018-01-28T09:18:25.369Z,23.70
2018-01-28T09:19:24.880Z,24.00
2018-01-28T09:20:24.416Z,21.10
2018-01-28T09:21:24.923Z,22.20
2018-01-28T09:22:24.638Z,21.70
2018-01-28T09:23:24.131Z,20.50
2018-01-28T09:24:24.844Z,19.70
2018-01-28T09:25:24.392Z,20.00
2018-01-28T09:26:25.251Z,18.50
2018-01-28T09:27:25.032Z,19.10
2018-01-28T09:29:09.746Z,16.60
2018-01-28T09:30:09.628Z,19.60
2018-01-28T09:31:10.272Z,17.40
2018-01-28T09:32:32.529Z,18.00
2018-01-28T09:33:32.972Z,18.00
2018-01-28T09:34:55.154Z,17.20
2018-01-28T09:35:56.304Z,18.70
2018-01-28T09:36:54.995Z,19.00
2018-01-28T09:38:18.433Z,18.60
2018-01-28T09:39:19.347Z,19.50
2018-01-28T09:40:19.278Z,21.30
2018-01-28T09:41:20.012Z,18.50
2018-01-28T09:42:19.814Z,19.20
2018-01-28T09:43:19.679Z,18.00
2018-01-28T09:44:19.830Z,19.00
2018-01-28T09:45:18.450Z,18.60
2018-01-28T09:46:20.105Z,19.20
2018-01-28T09:47:18.745Z,17.90
2018-01-28T09:48:21.198Z,18.10
2018-01-28T09:49:20.148Z,16.40
2018-01-28T09:50:18.870Z,17.10
2018-01-28T09:51:18.691Z,19.30
2018-01-28T09:52:19.330Z,17.10
2018-01-28T09:53:19.141Z,16.80
2018-01-28T09:54:41.234Z,15.40
2018-01-28T09:55:41.292Z,16.80
2018-01-28T09:56:40.979Z,18.40
2018-01-28T09:58:05.751Z,14.60
2018-01-28T09:59:05.760Z,13.90
2018-01-28T10:00:05.467Z,14.40
2018-01-28T10:01:06.345Z,13.50
2018-01-28T10:02:05.829Z,13.10
2018-01-28T10:03:05.947Z,14.50
2018-01-28T10:04:05.413Z,15.40
2018-01-28T10:05:06.209Z,15.80
2018-01-28T10:06:06.011Z,14.20
2018-01-28T10:07:06.224Z,14.80
2018-01-28T10:08:27.652Z,12.30
2018-01-28T10:09:28.115Z,14.60
2018-01-28T10:10:27.567Z,13.50
2018-01-28T10:11:28.052Z,12.00
2018-01-28T10:12:28.500Z,12.00
2018-01-28T10:13:28.625Z,14.10
2018-01-28T10:14:29.049Z,14.40
2018-01-28T10:15:27.592Z,14.70
2018-01-28T10:16:50.952Z,14.50
2018-01-28T10:17:50.441Z,15.00
2018-01-28T10:18:50.480Z,14.10
2018-01-28T10:19:50.202Z,14.80
2018-01-28T10:20:50.803Z,13.30
2018-01-28T10:21:50.642Z,11.80
2018-01-28T10:22:50.440Z,13.70
2018-01-28T10:23:50.400Z,14.00
2018-01-28T10:24:50.299Z,14.80
2018-01-28T10:25:50.964Z,13.60
2018-01-28T10:27:12.060Z,15.50
2018-01-28T10:28:12.577Z,14.20
2018-01-28T10:29:12.065Z,14.30
2018-01-28T10:30:12.772Z,15.90
2018-01-28T10:31:12.338Z,15.50
2018-01-28T10:32:35.060Z,15.30
2018-01-28T10:33:35.904Z,15.90
2018-01-28T10:34:35.862Z,15.40
2018-01-28T10:35:35.314Z,15.20
2018-01-28T10:36:57.750Z,15.30
2018-01-28T10:37:57.591Z,16.30
2018-01-28T10:38:57.476Z,16.60
2018-01-28T10:39:58.098Z,16.80
2018-01-28T10:40:57.847Z,17.80
2018-01-28T10:41:57.373Z,17.50
2018-01-28T10:42:58.040Z,15.90
2018-01-28T10:43:58.968Z,16.20
2018-01-28T10:44:57.513Z,15.70
2018-01-28T10:45:58.490Z,15.60
2018-01-28T10:47:19.947Z,16.20
2018-01-28T10:48:20.959Z,16.90
2018-01-28T10:49:20.918Z,17.50
2018-01-28T10:50:21.086Z,17.20
2018-01-28T10:51:20.431Z,16.40
2018-01-28T10:52:20.380Z,18.40
2018-01-28T10:53:23.826Z,17.00
2018-01-28T10:54:20.434Z,16.70
2018-01-28T10:55:21.572Z,17.00
2018-01-28T10:56:42.348Z,17.50
2018-01-28T10:57:42.832Z,15.60
2018-01-28T10:58:43.393Z,16.60
2018-01-28T10:59:44.724Z,17.90
2018-01-28T11:00:43.857Z,16.30
2018-01-28T11:01:43.405Z,17.30
2018-01-28T11:02:42.354Z,16.50
2018-01-28T11:04:06.345Z,14.60
2018-01-28T11:05:08.537Z,18.90
2018-01-28T11:06:28.825Z,19.30
2018-01-28T11:07:28.480Z,19.40
2018-01-28T11:08:28.551Z,16.80
2018-01-28T11:09:30.014Z,18.50
2018-01-28T11:10:30.149Z,17.80
2018-01-28T11:11:29.097Z,18.40
2018-01-28T11:12:30.083Z,17.80
2018-01-28T11:13:29.706Z,17.90
2018-01-28T11:14:28.741Z,16.50
2018-01-28T11:15:30.040Z,14.90
2018-01-28T11:16:30.275Z,15.50
2018-01-28T11:17:29.899Z,15.20
2018-01-28T11:18:28.790Z,15.50
2018-01-28T11:19:30.466Z,15.30
2018-01-28T11:20:28.903Z,15.70
2018-01-28T11:21:29.377Z,18.20
2018-01-28T11:22:28.947Z,19.70
2018-01-28T11:23:28.481Z,18.00
2018-01-28T11:24:29.218Z,17.50
2018-01-28T11:25:28.708Z,18.50
2018-01-28T11:26:28.681Z,17.20
2018-01-28T11:27:29.071Z,17.50
2018-01-28T11:28:29.650Z,18.50
2018-01-28T11:29:28.277Z,17.90
2018-01-28T11:30:51.589Z,15.80
2018-01-28T11:31:52.241Z,18.10
2018-01-28T11:32:52.202Z,16.50
2018-01-28T11:33:51.736Z,18.70
2018-01-28T11:34:52.379Z,17.40
2018-01-28T11:35:54.214Z,15.60
2018-01-28T11:36:52.509Z,15.80
2018-01-28T11:37:52.716Z,15.00
2018-01-28T11:38:52.615Z,13.00
2018-01-28T11:39:52.932Z,15.50
2018-01-28T11:40:51.678Z,15.10
2018-01-28T11:41:52.258Z,14.20
2018-01-28T11:42:51.993Z,16.40
2018-01-28T11:43:52.459Z,15.50
2018-01-28T11:44:53.964Z,15.50
2018-01-28T11:45:53.885Z,16.00
2018-01-28T11:46:53.382Z,13.20
2018-01-28T11:48:17.480Z,15.80
2018-01-28T11:49:17.490Z,12.70
2018-01-28T11:50:18.111Z,14.40
2018-01-28T11:51:18.640Z,16.20
2018-01-28T11:52:18.619Z,13.60
2018-01-28T11:53:18.150Z,13.70
2018-01-28T11:54:17.760Z,12.80
2018-01-28T11:55:18.416Z,14.70
2018-01-28T11:56:19.105Z,10.80
2018-01-28T11:57:18.328Z,13.50
2018-01-28T11:58:16.409Z,13.40
2018-01-28T11:59:16.230Z,11.80
2018-01-28T12:00:16.640Z,13.60
2018-01-28T12:01:16.931Z,13.40
2018-01-28T12:02:17.139Z,11.70
2018-01-28T12:03:17.280Z,12.10
2018-01-28T12:04:17.041Z,12.70
2018-01-28T12:05:41.102Z,12.70
2018-01-28T12:06:42.255Z,12.70
2018-01-28T12:07:41.133Z,10.90
2018-01-28T12:08:41.781Z,11.50
2018-01-28T12:09:41.949Z,11.30
2018-01-28T12:10:42.037Z,10.00
2018-01-28T12:11:46.702Z,9.40
2018-01-28T12:12:41.889Z,8.00
2018-01-28T12:13:42.451Z,9.70
2018-01-28T12:14:43.258Z,10.30
2018-01-28T12:15:42.003Z,10.80
2018-01-28T12:17:04.950Z,10.00
2018-01-28T12:18:04.816Z,9.70
2018-01-28T12:19:28.763Z,9.70
2018-01-28T12:20:27.632Z,8.80
2018-01-28T12:21:27.547Z,8.30
2018-01-28T12:22:27.457Z,7.20
2018-01-28T12:23:27.710Z,9.10
2018-01-28T12:24:48.911Z,5.90
2018-01-28T12:26:12.204Z,7.10
2018-01-28T12:27:12.142Z,6.90
2018-01-28T12:28:12.041Z,6.80
2018-01-28T12:29:11.509Z,7.30
2018-01-28T12:30:13.128Z,7.20
2018-01-28T12:31:12.311Z,6.90
2018-01-28T12:32:11.449Z,7.50
2018-01-28T12:33:12.413Z,7.00
2018-01-28T12:34:11.557Z,6.30
2018-01-28T12:35:11.416Z,6.90
2018-01-28T12:36:12.092Z,7.30
2018-01-28T12:37:11.700Z,7.60
2018-01-28T12:38:11.951Z,7.00
2018-01-28T12:39:36.828Z,8.40
2018-01-28T12:40:35.359Z,7.20
2018-01-28T12:41:36.434Z,6.30
2018-01-28T12:42:36.218Z,6.60
2018-01-28T12:43:34.977Z,7.10
2018-01-28T12:44:36.627Z,6.50
2018-01-28T12:45:58.962Z,6.20
2018-01-28T12:46:57.989Z,7.20
2018-01-28T12:47:57.883Z,7.10
2018-01-28T12:48:58.572Z,6.60
2018-01-28T12:49:58.429Z,5.80
2018-01-28T12:50:58.994Z,5.40
2018-01-28T12:51:57.760Z,4.10
2018-01-28T12:53:00.448Z,4.90
2018-01-28T12:53:58.354Z,4.90
2018-01-28T12:54:58.520Z,5.40
2018-01-28T12:56:00.864Z,5.90
2018-01-28T12:57:20.506Z,6.00
2018-01-28T12:58:20.853Z,6.00
2018-01-28T12:59:20.549Z,5.00
2018-01-28T13:00:20.179Z,5.70
2018-01-28T13:01:20.181Z,6.50
2018-01-28T13:02:21.401Z,6.50
2018-01-28T13:03:21.227Z,6.00
2018-01-28T13:04:21.549Z,5.40
2018-01-28T13:05:21.044Z,6.70
2018-01-28T13:06:21.104Z,6.20
2018-01-28T13:07:20.107Z,5.10
2018-01-28T13:08:19.955Z,6.50
2018-01-28T13:09:22.452Z,7.30
2018-01-28T13:10:41.955Z,6.90
2018-01-28T13:11:41.586Z,5.50
2018-01-28T13:13:04.345Z,6.40
2018-01-28T13:14:04.642Z,5.90
2018-01-28T13:15:05.043Z,6.30
2018-01-28T13:16:04.740Z,5.60
2018-01-28T13:17:04.800Z,6.50
2018-01-28T13:18:05.126Z,5.40
2018-01-28T13:19:06.269Z,6.40
2018-01-28T13:20:04.269Z,5.70
2018-01-28T13:21:05.138Z,4.90
2018-01-28T13:22:04.180Z,4.60
2018-01-28T13:23:04.465Z,6.10
2018-01-28T13:24:04.815Z,5.50
2018-01-28T13:25:05.036Z,6.90
2018-01-28T13:26:04.771Z,5.80
2018-01-28T13:27:05.676Z,5.80